createdAt,value
2022-08-28T00:00:40.302Z,97637.77
2022-08-28T00:04:15.501Z,97638.63
2022-08-28T00:07:52.505Z,97636.23
2022-08-28T00:11:29.413Z,97634.81
2022-08-28T00:15:09.735Z,97630.84
2022-08-28T00:18:42.632Z,97634.72
2022-08-28T00:22:19.452Z,97635.77
2022-08-28T00:25:56.423Z,97636.20
2022-08-28T00:29:52.319Z,97632.84
2022-08-28T00:33:34.548Z,97630.84
2022-08-28T00:36:55.929Z,97633.54
2022-08-28T00:40:34.256Z,97632.42
2022-08-28T00:44:16.165Z,97632.02
2022-08-28T00:47:46.273Z,97633.35
2022-08-28T00:51:41.775Z,97630.00
2022-08-28T00:55:14.328Z,97635.52
2022-08-28T00:58:43.979Z,97633.45
2022-08-28T01:02:18.827Z,97630.09
2022-08-28T01:05:55.826Z,97626.99
2022-08-28T01:09:32.872Z,97624.48
2022-08-28T01:13:08.072Z,97620.64
2022-08-28T01:16:47.027Z,97619.38
2022-08-28T01:20:26.850Z,97619.63
2022-08-28T01:24:12.048Z,97613.06
2022-08-28T01:27:35.867Z,97611.68
2022-08-28T01:31:14.706Z,97614.56
2022-08-28T01:34:48.937Z,97614.27
2022-08-28T01:38:26.969Z,97614.88
2022-08-28T01:42:02.531Z,97618.08
2022-08-28T01:45:41.792Z,97616.25
2022-08-28T01:49:16.362Z,97624.08
2022-08-28T01:52:52.708Z,97631.52
2022-08-28T01:56:29.948Z,97628.73
2022-08-28T02:00:46.486Z,97631.13
2022-08-28T02:04:11.501Z,97628.73
2022-08-28T02:07:47.166Z,97624.97
2022-08-28T02:11:24.459Z,97629.17
2022-08-28T02:15:00.637Z,97639.17
2022-08-28T02:18:38.978Z,97643.75
2022-08-28T02:22:13.842Z,97644.11
2022-08-28T02:26:11.483Z,97636.14
2022-08-28T02:29:33.386Z,97631.80
2022-08-28T02:33:10.364Z,97633.98
2022-08-28T02:36:48.078Z,97632.05
2022-08-28T02:40:26.103Z,97631.70
2022-08-28T02:44:00.446Z,97633.92
2022-08-28T02:47:42.566Z,97636.34
2022-08-28T02:51:15.094Z,97632.19
2022-08-28T02:54:50.848Z,97630.13
2022-08-28T02:58:27.443Z,97626.03
2022-08-28T03:02:23.793Z,97629.18
2022-08-28T03:05:46.581Z,97636.33
2022-08-28T03:09:23.878Z,97636.34
2022-08-28T03:13:00.552Z,97639.58
2022-08-28T03:16:37.106Z,97637.50
2022-08-28T03:20:15.140Z,97637.50
2022-08-28T03:24:09.724Z,97639.92
2022-08-28T03:27:51.511Z,97641.65
2022-08-28T03:31:17.985Z,97642.02
2022-08-28T03:34:50.093Z,97639.39
2022-08-28T03:38:28.079Z,97636.71
2022-08-28T03:42:03.854Z,97639.58
2022-08-28T03:45:40.973Z,97638.33
2022-08-28T03:49:17.068Z,97637.79
2022-08-28T03:52:55.404Z,97636.91
2022-08-28T03:56:32.323Z,97642.65
2022-08-28T04:00:11.236Z,97643.98
2022-08-28T04:03:44.655Z,97645.64
2022-08-28T04:07:22.429Z,97648.66
2022-08-28T04:10:59.638Z,97645.25
2022-08-28T04:14:35.679Z,97648.63
2022-08-28T04:18:13.023Z,97651.70
2022-08-28T04:21:48.486Z,97652.10
2022-08-28T04:25:25.321Z,97654.23
2022-08-28T04:29:03.935Z,97653.86
2022-08-28T04:32:39.594Z,97655.88
2022-08-28T04:36:18.013Z,97653.48
2022-08-28T04:39:52.488Z,97661.73
2022-08-28T04:43:29.163Z,97663.61
2022-08-28T04:47:06.328Z,97666.73
2022-08-28T04:50:45.965Z,97676.84
2022-08-28T04:54:20.770Z,97678.49
2022-08-28T04:57:56.214Z,97677.56
2022-08-28T05:01:33.185Z,97682.21
2022-08-28T05:05:10.268Z,97680.77
2022-08-28T05:08:47.373Z,97688.95
2022-08-28T05:12:24.007Z,97689.16
2022-08-28T05:16:04.208Z,97692.96
2022-08-28T05:19:36.985Z,97690.50
2022-08-28T05:23:15.578Z,97686.88
2022-08-28T05:26:50.683Z,97681.95
2022-08-28T05:30:27.785Z,97675.79
2022-08-28T05:34:05.139Z,97675.18
2022-08-28T05:37:41.097Z,97674.93
2022-08-28T05:41:24.264Z,97677.52
2022-08-28T05:44:54.828Z,97687.39
2022-08-28T05:48:35.201Z,97682.27
2022-08-28T05:52:28.197Z,97681.02
2022-08-28T05:55:51.759Z,97672.44
2022-08-28T05:59:26.494Z,97671.84
2022-08-28T06:03:03.357Z,97673.26
2022-08-28T06:06:41.374Z,97680.39
2022-08-28T06:10:17.195Z,97678.33
2022-08-28T06:13:54.641Z,97682.48
2022-08-28T06:17:31.097Z,97678.38
2022-08-28T06:21:07.222Z,97675.91
2022-08-28T06:24:44.022Z,97668.54
2022-08-28T06:28:24.022Z,97665.46
2022-08-28T06:32:01.145Z,97664.94
2022-08-28T06:35:55.209Z,97663.77
2022-08-28T06:39:17.160Z,97662.48
2022-08-28T06:42:55.495Z,97665.57
2022-08-28T06:46:33.315Z,97676.00
2022-08-28T06:50:08.892Z,97679.35
2022-08-28T06:53:46.327Z,97686.08
2022-08-28T06:57:22.055Z,97689.59
2022-08-28T07:01:03.295Z,97694.23
2022-08-28T07:04:35.411Z,97690.37
2022-08-28T07:08:11.708Z,97685.52
2022-08-28T07:11:49.066Z,97683.79
2022-08-28T07:15:25.063Z,97688.35
2022-08-28T07:19:04.908Z,97689.39
2022-08-28T07:22:41.123Z,97689.61
2022-08-28T07:26:19.522Z,97690.32
2022-08-28T07:29:53.355Z,97684.11
2022-08-28T07:33:30.103Z,97686.15
2022-08-28T07:37:07.279Z,97688.14
2022-08-28T07:41:12.351Z,97690.16
2022-08-28T07:44:49.874Z,97696.06
2022-08-28T07:48:12.976Z,97696.83
2022-08-28T07:51:49.355Z,97696.33
2022-08-28T07:55:44.940Z,97698.20
2022-08-28T07:59:25.176Z,97699.23
2022-08-28T08:02:47.867Z,97701.45
2022-08-28T08:06:44.506Z,97700.42
2022-08-28T08:10:24.911Z,97696.27
2022-08-28T08:13:48.327Z,97690.46
2022-08-28T08:17:23.247Z,97688.54
2022-08-28T08:21:21.587Z,97687.36
2022-08-28T08:24:43.823Z,97692.37
2022-08-28T08:28:21.089Z,97697.73
2022-08-28T08:32:02.841Z,97697.23
2022-08-28T08:35:37.218Z,97700.56
2022-08-28T08:39:10.819Z,97704.16
2022-08-28T08:42:51.182Z,97705.02
2022-08-28T08:46:36.289Z,97703.54
2022-08-28T08:50:20.943Z,97705.86
2022-08-28T08:53:53.198Z,97701.77
2022-08-28T08:57:38.920Z,97698.71
2022-08-28T09:01:03.903Z,97703.10
2022-08-28T09:05:02.636Z,97710.06
2022-08-28T09:08:31.760Z,97705.24
2022-08-28T09:12:13.331Z,97704.64
2022-08-28T09:15:48.690Z,97703.41
2022-08-28T09:19:19.979Z,97706.72
2022-08-28T09:22:51.536Z,97707.11
2022-08-28T09:26:29.264Z,97705.73
2022-08-28T09:30:31.032Z,97705.08
2022-08-28T09:33:53.469Z,97709.27
2022-08-28T09:37:32.623Z,97710.95
2022-08-28T09:41:30.653Z,97708.86
2022-08-28T09:45:00.492Z,97714.64
2022-08-28T09:48:51.755Z,97717.91
2022-08-28T09:52:32.315Z,97717.32
2022-08-28T09:56:26.500Z,97718.42
2022-08-28T09:59:48.774Z,97718.13
2022-08-28T10:03:33.573Z,97718.33
2022-08-28T10:07:14.374Z,97714.13
2022-08-28T10:10:50.690Z,97711.15
2022-08-28T10:14:34.506Z,97712.84
2022-08-28T10:18:36.817Z,97715.03
2022-08-28T10:22:31.670Z,97715.50
2022-08-28T10:26:15.446Z,97712.41
2022-08-28T10:30:13.875Z,97716.29
2022-08-28T10:33:50.493Z,97718.07
2022-08-28T10:37:26.646Z,97715.79
2022-08-28T10:41:15.942Z,97713.31
2022-08-28T10:45:05.437Z,97710.73
2022-08-28T10:48:37.883Z,97710.92
2022-08-28T10:52:30.168Z,97706.79
2022-08-28T10:56:00.285Z,97707.65
2022-08-28T10:59:32.559Z,97702.68
2022-08-28T11:03:32.707Z,97705.52
2022-08-28T11:07:05.983Z,97708.04
2022-08-28T11:10:58.198Z,97701.49
2022-08-28T11:14:48.503Z,97704.01
2022-08-28T11:18:14.743Z,97703.49
2022-08-28T11:21:53.252Z,97696.98
2022-08-28T11:25:45.420Z,97698.27
2022-08-28T11:29:11.094Z,97700.66
2022-08-28T11:32:49.665Z,97704.14
2022-08-28T11:36:42.771Z,97713.40
2022-08-28T11:40:41.468Z,97713.34
2022-08-28T11:44:06.882Z,97718.36
2022-08-28T11:47:47.417Z,97718.27
2022-08-28T11:51:17.587Z,97719.23
2022-08-28T11:54:57.849Z,97717.84
2022-08-28T11:58:58.083Z,97715.95
2022-08-28T12:02:41.412Z,97711.16
2022-08-28T12:06:44.320Z,97705.55
2022-08-28T12:10:29.002Z,97708.52
2022-08-28T12:13:52.590Z,97708.98
2022-08-28T12:17:42.568Z,97708.35
2022-08-28T12:21:27.293Z,97701.90
2022-08-28T12:24:57.968Z,97699.42
2022-08-28T12:28:39.377Z,97696.16
2022-08-28T12:32:42.736Z,97694.10
2022-08-28T12:36:15.877Z,97695.77
2022-08-28T12:39:42.547Z,97695.65
2022-08-28T12:43:28.759Z,97699.07
2022-08-28T12:46:55.347Z,97699.19
2022-08-28T12:50:39.332Z,97694.67
2022-08-28T12:54:17.066Z,97692.61
2022-08-28T12:57:46.246Z,97692.84
2022-08-28T13:01:21.691Z,97692.67
2022-08-28T13:05:09.548Z,97695.77
2022-08-28T13:08:37.320Z,97696.41
2022-08-28T13:12:56.096Z,97695.55
2022-08-28T13:16:43.210Z,97696.58
2022-08-28T13:20:07.452Z,97696.30
2022-08-28T13:23:42.451Z,97688.69
2022-08-28T13:27:39.918Z,97693.34
2022-08-28T13:31:42.338Z,97693.88
2022-08-28T13:35:29.010Z,97699.45
2022-08-28T13:38:51.515Z,97718.48
2022-08-28T13:42:31.324Z,97727.45
2022-08-28T13:46:24.143Z,97731.98
2022-08-28T13:49:46.564Z,97737.05
2022-08-28T13:53:22.662Z,97732.18
2022-08-28T13:57:18.548Z,97729.94
2022-08-28T14:00:44.885Z,97730.05
2022-08-28T14:04:36.667Z,97738.62
2022-08-28T14:07:58.155Z,97754.15
2022-08-28T14:11:35.143Z,97761.05
2022-08-28T14:15:12.983Z,97759.28
2022-08-28T14:18:48.698Z,97757.75
2022-08-28T14:22:26.496Z,97765.11
2022-08-28T14:26:21.130Z,97766.44
2022-08-28T14:30:04.507Z,97763.88
2022-08-28T14:33:26.683Z,97761.73
2022-08-28T14:37:03.421Z,97781.72
2022-08-28T14:40:41.782Z,97795.89
2022-08-28T14:44:17.888Z,97816.60
2022-08-28T14:48:14.220Z,97839.41
2022-08-28T14:51:38.566Z,97844.81
2022-08-28T14:55:14.964Z,97851.83
2022-08-28T15:16:40.721Z,97852.33
2022-08-28T15:20:03.926Z,97827.21
2022-08-28T15:23:40.358Z,97820.77
2022-08-28T15:27:16.258Z,97819.65
2022-08-28T15:30:53.014Z,97812.08
2022-08-28T15:34:30.366Z,97798.57
2022-08-28T15:38:07.254Z,97795.24
2022-08-28T15:41:47.033Z,97790.76
2022-08-28T15:45:20.744Z,97785.84
2022-08-28T15:48:57.943Z,97787.65
2022-08-28T15:52:33.572Z,97782.00
2022-08-28T15:56:11.521Z,97777.77
2022-08-28T15:59:50.052Z,97773.63
2022-08-28T16:03:24.479Z,97769.65
2022-08-28T16:07:01.283Z,97763.84
2022-08-28T16:10:38.641Z,97764.91
2022-08-28T16:14:20.928Z,97771.81
2022-08-28T16:17:51.476Z,97773.93
2022-08-28T16:21:28.592Z,97775.73
2022-08-28T16:25:06.797Z,97779.02
2022-08-28T16:28:44.775Z,97782.48
2022-08-28T16:32:18.551Z,97801.89
2022-08-28T16:35:56.419Z,97807.38
2022-08-28T16:39:32.033Z,97817.64
2022-08-28T16:43:09.498Z,97813.59
2022-08-28T16:46:45.764Z,97807.07
2022-08-28T16:50:22.717Z,97810.80
2022-08-28T16:54:18.756Z,97806.44
2022-08-28T16:57:40.739Z,97799.39
2022-08-28T17:01:17.642Z,97798.77
2022-08-28T17:04:58.186Z,97801.69
2022-08-28T17:08:30.786Z,97803.65
2022-08-28T17:12:07.667Z,97808.14
2022-08-28T17:15:44.965Z,97813.38
2022-08-28T17:19:40.162Z,97814.67
2022-08-28T17:23:02.179Z,97815.95
2022-08-28T17:26:59.123Z,97818.86
2022-08-28T17:30:24.169Z,97822.51
2022-08-28T17:34:00.932Z,97822.35
2022-08-28T17:37:40.143Z,97821.41
2022-08-28T17:41:14.934Z,97826.51
2022-08-28T17:44:51.197Z,97827.64
2022-08-28T17:48:28.110Z,97824.84
2022-08-28T17:52:06.949Z,97825.44
2022-08-28T17:55:41.725Z,97821.30
2022-08-28T17:59:19.490Z,97822.61
2022-08-28T18:02:56.758Z,97822.93
2022-08-28T18:06:33.172Z,97829.43
2022-08-28T18:10:12.567Z,97834.56
2022-08-28T18:13:48.655Z,97834.94
2022-08-28T18:17:22.338Z,97840.69
2022-08-28T18:21:01.716Z,97845.90
2022-08-28T18:24:36.717Z,97849.02
2022-08-28T18:28:21.872Z,97853.21
2022-08-28T18:31:49.723Z,97853.71
2022-08-28T18:35:31.686Z,97858.13
2022-08-28T18:39:03.829Z,97868.33
2022-08-28T18:42:59.146Z,97872.73
2022-08-28T18:46:21.416Z,97875.15
2022-08-28T18:49:58.382Z,97877.75
2022-08-28T18:53:36.286Z,97880.65
2022-08-28T18:57:11.634Z,97881.98
2022-08-28T19:00:48.983Z,97880.70
2022-08-28T19:04:25.075Z,97886.21
2022-08-28T19:08:22.458Z,97890.84
2022-08-28T19:11:44.240Z,97891.54
2022-08-28T19:15:20.783Z,97886.52
2022-08-28T19:18:57.842Z,97891.88
2022-08-28T19:22:35.038Z,97897.36
2022-08-28T19:26:13.157Z,97901.96
2022-08-28T19:29:48.203Z,97902.86
2022-08-28T19:33:24.550Z,97903.48
2022-08-28T19:37:02.407Z,97901.47
2022-08-28T19:40:39.963Z,97899.74
2022-08-28T19:44:37.642Z,97905.33
2022-08-28T19:48:01.450Z,97904.81
2022-08-28T19:51:38.162Z,97909.16
2022-08-28T19:55:24.326Z,97908.08
2022-08-28T19:58:50.172Z,97909.36
2022-08-28T20:02:27.347Z,97913.61
2022-08-28T20:06:05.123Z,97915.64
2022-08-28T20:09:59.955Z,97916.39
2022-08-28T20:13:22.273Z,97917.86
2022-08-28T20:17:00.559Z,97920.57
2022-08-28T20:20:36.403Z,97921.23
2022-08-28T20:24:31.500Z,97924.30
2022-08-28T20:28:12.300Z,97926.36
2022-08-28T20:31:35.543Z,97925.27
2022-08-28T20:35:12.570Z,97928.29
2022-08-28T20:39:08.606Z,97931.70
2022-08-28T20:42:31.792Z,97930.48
2022-08-28T20:46:09.246Z,97935.20
2022-08-28T20:49:43.907Z,97936.45
2022-08-28T20:53:36.941Z,97935.19
2022-08-28T20:57:04.930Z,97932.77
2022-08-28T21:00:37.677Z,97933.73
2022-08-28T21:04:15.231Z,97935.70
2022-08-28T21:07:51.437Z,97933.77
2022-08-28T21:11:46.821Z,97936.80
2022-08-28T21:15:12.424Z,97937.56
2022-08-28T21:19:14.043Z,97940.59
2022-08-28T21:22:29.709Z,97936.63
2022-08-28T21:26:23.553Z,97939.71
2022-08-28T21:29:46.240Z,97939.63
2022-08-28T21:33:22.254Z,97939.14
2022-08-28T21:36:58.935Z,97941.38
2022-08-28T21:40:35.730Z,97940.26
2022-08-28T21:44:12.353Z,97941.01
2022-08-28T21:48:08.195Z,97941.74
2022-08-28T21:51:30.389Z,97946.10
2022-08-28T21:55:11.507Z,97949.06
2022-08-28T21:58:43.726Z,97948.52
2022-08-28T22:02:20.786Z,97949.71
2022-08-28T22:05:57.696Z,97946.52
2022-08-28T22:09:34.191Z,97943.48
2022-08-28T22:13:13.498Z,97947.95
2022-08-28T22:16:47.890Z,97952.66
2022-08-28T22:20:24.681Z,97952.00
2022-08-28T22:24:02.204Z,97953.46
2022-08-28T22:27:58.912Z,97959.66
2022-08-28T22:31:21.035Z,97958.41
2022-08-28T22:34:57.271Z,97961.84
2022-08-28T22:38:34.803Z,97963.86
2022-08-28T22:42:30.749Z,97966.15
2022-08-28T22:45:52.419Z,97965.02
2022-08-28T22:49:30.930Z,97964.77
2022-08-28T22:53:06.384Z,97963.10
2022-08-28T22:56:43.384Z,97965.36
2022-08-28T23:00:24.082Z,97966.05
2022-08-28T23:03:57.845Z,97968.42
2022-08-28T23:07:33.263Z,97968.81
2022-08-28T23:11:11.133Z,97971.58
2022-08-28T23:14:48.779Z,97975.16
2022-08-28T23:18:23.740Z,97975.17
2022-08-28T23:22:00.461Z,97971.89
2022-08-28T23:25:37.457Z,97973.66
2022-08-28T23:29:14.146Z,97974.95
2022-08-28T23:33:09.682Z,97977.11
2022-08-28T23:36:32.410Z,97975.77
2022-08-28T23:40:17.029Z,97975.95
2022-08-28T23:43:44.697Z,97979.16
2022-08-28T23:47:21.912Z,97973.63
2022-08-28T23:50:59.032Z,97977.35
2022-08-28T23:54:54.570Z,97977.98
2022-08-28T23:58:18.345Z,97978.60
